Time;durP1;ratioP1;P1;durP2;ratioP2;P2;SDS_P1;SDS_P2;PMS_P1;PMS_P2;Temp;Humidity;BMP_temperature;BMP_pressure;BME280_temperature;BME280_humidity;BME280_pressure;Samples;Min_cycle;Max_cycle;Signal;HPM_P1;HPM_P2
2022/12/27 00:02:19;;;;;;;17.00;3.13;;;;;;;5.24;75.04;100940.34;5038670;28;20123;-88
2022/12/27 00:04:47;;;;;;;14.15;2.85;;;;;;;5.26;74.77;100941.97;5034916;28;20049;-88
2022/12/27 00:07:14;;;;;;;14.00;2.30;;;;;;;5.25;75.09;100942.03;5049543;28;20455;-87
2022/12/27 00:09:42;;;;;;;11.35;2.20;;;;;;;5.14;74.88;100939.78;5049066;28;20076;-87
2022/12/27 00:12:09;;;;;;;13.55;2.53;;;;;;;5.08;75.72;100953.00;5024048;28;20044;-87
2022/12/27 00:14:36;;;;;;;14.43;2.65;;;;;;;5.06;75.98;100958.28;5040797;28;20068;-87
2022/12/27 00:17:04;;;;;;;14.35;2.65;;;;;;;5.06;75.71;100955.66;5044022;28;20467;-85
2022/12/27 00:19:31;;;;;;;13.27;2.42;;;;;;;5.00;76.23;100961.09;5047486;28;20023;-86
2022/12/27 00:21:58;;;;;;;11.90;2.13;;;;;;;4.93;76.63;100967.38;5060586;28;20021;-84
2022/12/27 00:24:25;;;;;;;13.95;2.83;;;;;;;4.92;76.77;100973.50;5063389;28;20037;-88
2022/12/27 00:26:53;;;;;;;9.40;2.40;;;;;;;4.88;77.49;100977.09;5045520;28;20033;-87
2022/12/27 00:29:21;;;;;;;16.73;3.50;;;;;;;4.79;77.67;100974.75;5050135;28;20038;-87
2022/12/27 00:31:49;;;;;;;9.40;1.88;;;;;;;4.90;77.32;100972.69;5053940;28;20024;-87
2022/12/27 00:34:16;;;;;;;11.27;2.35;;;;;;;4.85;78.08;100981.53;5043360;28;20029;-86
2022/12/27 00:36:43;;;;;;;18.30;2.97;;;;;;;4.79;77.24;100986.06;5042232;28;20053;-87
2022/12/27 00:39:11;;;;;;;8.45;1.77;;;;;;;4.77;78.58;100998.28;5061754;28;20020;-86
2022/12/27 00:41:38;;;;;;;12.07;2.58;;;;;;;4.82;77.75;100987.72;5057992;28;20040;-86
2022/12/27 00:44:06;;;;;;;17.00;2.10;;;;;;;4.75;78.45;100996.63;5046542;28;20090;-87
2022/12/27 00:46:33;;;;;;;13.38;2.85;;;;;;;4.71;78.21;100981.94;5043678;28;20051;-88
2022/12/27 00:49:01;;;;;;;7.35;1.95;;;;;;;4.71;78.84;100998.44;5050613;28;20044;-86
2022/12/27 00:51:28;;;;;;;14.45;2.30;;;;;;;4.81;78.80;100999.88;5052647;28;20040;-87
2022/12/27 00:53:55;;;;;;;12.95;2.30;;;;;;;4.81;78.11;101007.72;5015643;28;20037;-87
2022/12/27 00:56:25;;;;;;;7.05;2.97;;;;;;;4.63;78.81;101000.41;5027820;28;20139;-83
2022/12/27 00:58:54;;;;;;;14.98;2.72;;;;;;;4.54;79.13;101011.09;5038546;28;20036;-86
2022/12/27 01:01:23;;;;;;;13.13;2.15;;;;;;;4.54;79.30;101014.56;5040471;28;20040;-86
2022/12/27 01:03:51;;;;;;;12.63;2.25;;;;;;;4.46;79.71;101005.28;5035123;28;20040;-87
2022/12/27 01:06:20;;;;;;;14.60;2.50;;;;;;;4.39;80.35;101004.56;5056225;28;20033;-87
2022/12/27 01:08:48;;;;;;;16.13;2.63;;;;;;;4.30;80.30;101010.88;5061005;28;20218;-86
2022/12/27 01:11:16;;;;;;;19.20;2.45;;;;;;;4.33;80.39;101017.78;5035990;28;20546;-86
2022/12/27 01:13:45;;;;;;;12.68;2.80;;;;;;;4.24;81.17;101008.47;5050961;28;20053;-87
2022/12/27 01:16:16;;;;;;;15.40;2.58;;;;;;;4.26;81.12;101016.22;5038427;28;20131;-88
2022/12/27 01:18:44;;;;;;;14.30;2.33;;;;;;;4.25;81.36;101024.94;5046284;28;20049;-86
2022/12/27 01:21:12;;;;;;;8.82;1.88;;;;;;;4.19;81.60;101022.50;5039341;28;20052;-86
2022/12/27 01:23:40;;;;;;;10.70;1.88;;;;;;;4.13;81.81;101031.31;5028815;28;20052;-88
2022/12/27 01:26:11;;;;;;;10.60;2.17;;;;;;;4.12;82.13;101033.97;5040755;28;20132;-87
2022/12/27 01:28:39;;;;;;;16.05;2.95;;;;;;;4.12;82.48;101049.59;5044997;28;20419;-87
2022/12/27 01:31:15;;;;;;;10.90;2.78;;;;;;;4.13;82.09;101046.94;5064128;28;20086;-87
2022/12/27 01:33:43;;;;;;;10.60;2.17;;;;;;;4.09;82.77;101052.28;5032315;28;20079;-86
2022/12/27 01:36:20;;;;;;;9.30;2.22;;;;;;;4.05;82.76;101056.72;5045902;28;20517;-88
2022/12/27 01:38:48;;;;;;;9.93;2.38;;;;;;;4.03;82.88;101051.53;5047919;28;20083;-87
2022/12/27 01:44:38;;;;;;;18.57;2.63;;;;;;;3.91;84.53;101062.25;5046192;28;20328;-86
2022/12/27 01:47:19;;;;;;;14.88;2.20;;;;;;;3.81;85.12;101058.16;5049319;28;20476;-87
2022/12/27 01:50:05;;;;;;;10.18;2.17;;;;;;;3.74;85.06;101054.03;5057849;28;20058;-86
2022/12/27 01:52:41;;;;;;;12.00;2.40;;;;;;;3.77;85.78;101054.78;5065368;28;20066;-86
2022/12/27 01:55:34;;;;;;;;;;;;;;;3.80;85.00;101057.31;5055843;28;20179;-87
2022/12/27 01:58:12;;;;;;;13.15;2.50;;;;;;;3.73;86.24;101060.09;5044583;28;20440;-88
2022/12/27 02:00:42;;;;;;;14.15;2.60;;;;;;;3.62;86.74;101070.78;5050044;28;20044;-85
2022/12/27 02:03:11;;;;;;;10.68;1.70;;;;;;;3.74;86.45;101067.91;5047111;28;20036;-87
2022/12/27 02:05:40;;;;;;;17.73;2.60;;;;;;;3.67;86.17;101074.13;5034551;28;20049;-86
2022/12/27 02:08:16;;;;;;;17.52;2.88;;;;;;;3.57;87.36;101080.44;5033908;28;20072;-85
2022/12/27 02:10:45;;;;;;;14.55;2.22;;;;;;;3.65;86.61;101069.84;5047653;28;20040;-84
2022/12/27 02:13:13;;;;;;;15.18;2.63;;;;;;;3.69;86.39;101074.97;5045282;28;20060;-87
2022/12/27 02:15:41;;;;;;;13.70;2.10;;;;;;;3.55;87.54;101077.00;5067212;28;20064;-86
2022/12/27 02:18:09;;;;;;;12.75;2.45;;;;;;;3.54;87.90;101093.50;5058788;28;20032;-87
2022/12/27 02:21:08;;;;;;;21.58;2.85;;;;;;;3.50;87.46;101089.28;5040908;28;20131;-86
2022/12/27 02:24:05;;;;;;;13.48;2.45;;;;;;;3.55;87.27;101095.22;5043992;28;20044;-84
2022/12/27 02:26:38;;;;;;;16.45;2.13;;;;;;;3.52;88.00;101109.19;5049720;28;20041;-85
2022/12/27 02:29:31;;;;;;;20.52;2.90;;;;;;;3.51;87.95;101106.59;5073782;28;20029;-85
2022/12/27 02:32:13;;;;;;;10.05;1.90;;;;;;;3.53;88.06;101113.50;5074437;28;20032;-86
2022/12/27 02:34:46;;;;;;;14.88;2.67;;;;;;;3.43;88.38;101109.38;5052856;28;20064;-85
2022/12/27 02:37:13;;;;;;;17.33;2.85;;;;;;;3.38;89.03;101125.97;5051862;28;20075;-87
2022/12/27 02:39:45;;;;;;;11.18;2.70;;;;;;;3.37;89.23;101119.06;5031427;28;20092;-86
2022/12/27 02:53:47;;;;;;;10.77;1.88;;;;;;;3.30;89.18;101131.34;5062807;28;20051;-87
2022/12/27 03:03:19;;;;;;;16.33;2.85;;;;;;;3.33;88.87;101130.41;5058261;28;20048;-85
2022/12/27 03:06:38;;;;;;;13.60;2.10;;;;;;;3.28;88.77;101140.91;5054314;28;20072;-89
2022/12/27 03:08:58;;;;;;;8.32;2.20;;;;;;;3.24;89.21;101136.66;5065135;28;20116;-88
2022/12/27 03:17:32;;;;;;;20.13;2.33;;;;;;;3.24;89.10;101147.06;5046486;28;20037;-86
2022/12/27 03:26:04;;;;;;;14.98;2.70;;;;;;;3.08;90.05;101154.34;5074641;28;20036;-85
2022/12/27 03:34:39;;;;;;;12.18;1.80;;;;;;;3.19;89.99;101160.16;5026051;28;20037;-85
2022/12/27 03:40:04;;;;;;;8.98;2.20;;;;;;;3.18;89.79;101173.22;5029696;28;20073;-86
2022/12/27 03:46:32;;;;;;;10.25;1.90;;;;;;;3.23;89.59;101169.63;5066314;28;20060;-85
2022/12/27 03:48:13;;;;;;;13.40;2.10;;;;;;;3.21;89.76;101174.03;5049852;28;20532;-88
2022/12/27 03:50:52;;;;;;;13.73;2.60;;;;;;;3.14;89.80;101177.63;5045592;28;20053;-85
2022/12/27 03:53:58;;;;;;;19.88;3.45;;;;;;;3.21;89.27;101173.16;5019877;28;20041;-86
2022/12/27 03:56:26;;;;;;;13.38;1.90;;;;;;;3.13;89.71;101178.50;5039856;28;20292;-87
2022/12/27 03:58:55;;;;;;;9.90;2.35;;;;;;;3.09;90.08;101181.19;5050539;28;20044;-85
2022/12/27 04:01:22;;;;;;;12.00;2.47;;;;;;;3.10;90.17;101180.31;5053087;28;20041;-86
2022/12/27 04:03:52;;;;;;;9.02;2.22;;;;;;;3.13;90.01;101182.88;5057413;28;20049;-88
2022/12/27 04:06:19;;;;;;;10.52;2.05;;;;;;;3.09;90.48;101176.84;5064670;28;20052;-85
2022/12/27 04:36:32;;;;;;;9.15;2.45;;;;;;;3.11;89.88;101175.09;5064705;28;20060;-87
2022/12/27 04:39:00;;;;;;;14.60;2.90;;;;;;;3.14;90.20;101179.38;5052730;28;20067;-87
2022/12/27 04:55:20;;;;;;;8.50;2.08;;;;;;;3.23;89.13;101193.06;5056233;28;20107;-89
2022/12/27 04:57:48;;;;;;;12.68;2.35;;;;;;;3.22;89.59;101187.88;5053949;28;20048;-89
2022/12/27 05:03:06;;;;;;;7.40;2.67;;;;;;;3.21;88.87;101194.84;5050284;28;20477;-89
2022/12/27 05:05:35;;;;;;;7.55;2.35;;;;;;;3.23;89.47;101177.44;5049687;28;20039;-88
2022/12/27 05:16:23;;;;;;;11.32;2.30;;;;;;;3.30;88.19;101180.78;5063594;28;20032;-88
2022/12/27 05:18:52;;;;;;;9.38;3.10;;;;;;;3.27;87.68;101179.09;5055406;28;20021;-89
2022/12/27 05:21:19;;;;;;;9.15;2.30;;;;;;;3.23;88.44;101181.78;5071688;28;20039;-88
2022/12/27 05:26:46;;;;;;;12.15;2.78;;;;;;;3.30;87.46;101184.25;5027475;28;20059;-86
2022/12/27 05:29:14;;;;;;;11.65;2.50;;;;;;;3.33;87.29;101185.06;5050151;28;20067;-86
2022/12/27 05:31:41;;;;;;;8.38;2.20;;;;;;;3.29;87.36;101186.88;5042149;28;20067;-84
2022/12/27 05:34:08;;;;;;;11.35;2.63;;;;;;;3.34;87.07;101186.78;5033408;28;20033;-86
2022/12/27 05:36:36;;;;;;;8.30;2.67;;;;;;;3.37;87.32;101187.56;5037531;28;20045;-86
2022/12/27 05:39:03;;;;;;;9.02;2.22;;;;;;;3.41;86.41;101194.44;5039824;28;20037;-88
2022/12/27 05:41:31;;;;;;;8.38;2.80;;;;;;;3.38;86.56;101197.13;5008967;28;20041;-88
2022/12/27 05:43:58;;;;;;;13.60;2.47;;;;;;;3.45;87.27;101205.63;5024658;28;20147;-89
2022/12/27 05:46:33;;;;;;;10.02;2.47;;;;;;;3.37;87.34;101213.59;5040126;28;20045;-87
2022/12/27 05:49:01;;;;;;;11.48;2.97;;;;;;;3.38;87.20;101215.34;5029919;28;20040;-87
2022/12/27 05:51:28;;;;;;;8.55;2.33;;;;;;;3.37;87.09;101224.00;5045920;28;20047;-86
2022/12/27 05:53:55;;;;;;;9.85;2.60;;;;;;;3.42;86.74;101223.91;5024940;28;20424;-87
2022/12/27 05:56:23;;;;;;;12.18;2.60;;;;;;;3.44;87.25;101215.19;5061104;28;20055;-85
2022/12/27 05:58:53;;;;;;;8.48;2.58;;;;;;;3.39;86.87;101224.00;5035176;28;20028;-86
2022/12/27 06:01:20;;;;;;;8.75;2.30;;;;;;;3.41;86.51;101223.06;5048858;28;20032;-86
2022/12/27 06:03:48;;;;;;;7.35;2.72;;;;;;;3.41;86.81;101225.66;5033223;28;20036;-85
2022/12/27 06:06:15;;;;;;;10.02;2.53;;;;;;;3.49;86.14;101249.81;5058740;28;20066;-87
2022/12/27 06:08:43;;;;;;;11.93;2.40;;;;;;;3.46;86.32;101234.22;5033968;28;20046;-87
2022/12/27 06:11:14;;;;;;;8.50;2.03;;;;;;;3.47;85.84;101238.56;5040497;28;20082;-86
2022/12/27 06:13:43;;;;;;;15.43;2.70;;;;;;;3.38;86.42;101220.53;5061355;28;20071;-86
2022/12/27 06:16:11;;;;;;;8.45;1.83;;;;;;;3.33;86.99;101263.13;5026914;28;20032;-86
2022/12/27 06:18:40;;;;;;;10.75;2.83;;;;;;;3.37;86.51;101236.16;5043203;28;20045;-88
2022/12/27 06:21:16;;;;;;;13.48;2.65;;;;;;;3.31;87.38;101234.53;5025194;28;20065;-87
2022/12/27 06:23:44;;;;;;;12.02;2.50;;;;;;;3.34;87.60;101233.63;5024450;28;20083;-87
2022/12/27 06:26:17;;;;;;;7.32;1.95;;;;;;;3.34;86.79;101236.25;5028436;28;20076;-87
2022/12/27 06:28:47;;;;;;;12.45;2.05;;;;;;;3.33;87.18;101237.09;5046086;28;20068;-89
2022/12/27 06:31:16;;;;;;;15.45;2.67;;;;;;;3.34;87.67;101233.63;5045478;28;20047;-90
2022/12/27 06:33:45;;;;;;;7.18;1.92;;;;;;;3.28;87.34;101232.00;5061859;28;20029;-88
2022/12/27 06:36:14;;;;;;;8.32;1.73;;;;;;;3.28;87.25;101239.78;5051298;28;20035;-90
2022/12/27 06:38:42;;;;;;;12.65;1.98;;;;;;;3.29;88.02;101251.94;5047654;28;20060;-89
2022/12/27 06:41:12;;;;;;;11.40;2.35;;;;;;;3.32;87.65;101240.59;5058890;28;20025;-88
2022/12/27 06:43:40;;;;;;;12.18;1.95;;;;;;;3.33;87.52;101247.50;5046932;28;20044;-88
2022/12/27 06:46:13;;;;;;;9.07;1.90;;;;;;;3.30;87.93;101251.91;5038891;28;20095;-88
2022/12/27 06:48:46;;;;;;;8.43;1.83;;;;;;;3.29;88.02;101257.16;5049678;28;20037;-88
2022/12/27 06:51:14;;;;;;;10.60;2.58;;;;;;;3.35;87.64;101237.94;5034768;28;20044;-88
2022/12/27 06:53:42;;;;;;;9.05;2.30;;;;;;;3.32;87.93;101244.06;5032773;28;20053;-88
2022/12/27 06:56:15;;;;;;;9.50;2.28;;;;;;;3.31;87.92;101244.94;5032078;28;20052;-89
2022/12/27 06:58:44;;;;;;;15.93;2.38;;;;;;;3.34;87.22;101244.91;5055161;28;20495;-88
2022/12/27 07:01:24;;;;;;;10.00;2.70;;;;;;;3.32;87.61;101256.22;5030602;28;20392;-86
2022/12/27 07:03:56;;;;;;;11.55;2.58;;;;;;;3.36;87.25;101270.88;5052570;28;20088;-88
2022/12/27 07:06:25;;;;;;;14.93;2.53;;;;;;;3.28;87.61;101261.47;5034965;28;20051;-88
2022/12/27 07:08:53;;;;;;;10.13;2.38;;;;;;;3.37;86.38;101251.78;5034356;28;20036;-86
2022/12/27 07:11:21;;;;;;;10.93;2.13;;;;;;;3.26;87.11;101259.78;5047166;28;20048;-85
2022/12/27 07:13:51;;;;;;;8.85;2.50;;;;;;;3.25;87.15;101255.50;5050100;28;20040;-88
2022/12/27 07:16:22;;;;;;;9.23;2.47;;;;;;;3.26;87.08;101270.22;5070996;28;20436;-87
2022/12/27 07:18:51;;;;;;;6.95;2.55;;;;;;;3.27;87.37;101274.50;5051817;28;20045;-86
2022/12/27 07:21:21;;;;;;;8.73;1.90;;;;;;;3.23;87.38;101289.31;5062161;28;20051;-85
2022/12/27 07:23:49;;;;;;;6.75;2.10;;;;;;;3.25;87.52;101278.91;5048064;28;20032;-86
2022/12/27 07:26:19;;;;;;;6.70;2.03;;;;;;;3.32;86.91;101279.63;5047442;28;20508;-87
2022/12/27 07:28:46;;;;;;;11.35;1.83;;;;;;;3.31;86.89;101289.19;5048178;28;20132;-86
2022/12/27 07:31:21;;;;;;;12.88;2.35;;;;;;;3.24;87.10;101296.25;5027613;28;20457;-87
2022/12/27 07:33:49;;;;;;;10.27;2.20;;;;;;;3.23;87.52;101297.13;5060250;28;20135;-86
2022/12/27 07:36:23;;;;;;;7.05;2.30;;;;;;;3.23;87.19;101293.66;5059334;28;20044;-88
2022/12/27 07:38:51;;;;;;;13.48;2.13;;;;;;;3.28;87.10;101317.84;5022231;28;20068;-87
2022/12/27 07:41:21;;;;;;;9.07;1.90;;;;;;;3.29;87.09;101319.59;5029273;28;20134;-87
2022/12/27 07:43:48;;;;;;;8.00;2.55;;;;;;;3.32;87.10;101306.50;5037367;28;20036;-87
2022/12/27 07:46:18;;;;;;;4.68;1.90;;;;;;;3.29;87.43;101306.59;5042455;28;20036;-85
2022/12/27 07:48:46;;;;;;;8.75;2.33;;;;;;;3.30;87.10;101309.16;5026280;28;20475;-86
2022/12/27 07:51:15;;;;;;;11.85;1.88;;;;;;;3.31;87.23;101333.44;5046016;28;20047;-85
2022/12/27 07:53:42;;;;;;;10.60;2.40;;;;;;;3.36;86.71;101339.41;5044266;28;20067;-85
2022/12/27 07:56:10;;;;;;;6.72;1.90;;;;;;;3.41;86.59;101321.97;5046932;28;20024;-85
2022/12/27 07:58:45;;;;;;;10.95;2.35;;;;;;;3.39;86.97;101334.16;5043509;28;20053;-85
2022/12/27 08:01:15;;;;;;;13.95;2.08;;;;;;;3.37;87.07;101322.03;5037099;28;20037;-86
2022/12/27 08:03:58;;;;;;;10.30;2.35;;;;;;;3.42;86.45;101328.03;5050776;28;20027;-85
2022/12/27 08:06:38;;;;;;;6.63;2.25;;;;;;;3.45;86.40;101326.22;5070607;28;20071;-84
2022/12/27 08:09:06;;;;;;;7.97;2.00;;;;;;;3.45;86.97;101331.44;5051781;28;20036;-85
2022/12/27 08:11:36;;;;;;;11.15;1.92;;;;;;;3.57;86.43;101332.09;5049669;28;20052;-86
2022/12/27 08:14:03;;;;;;;10.30;2.10;;;;;;;3.52;86.32;101342.59;5030253;28;20495;-87
2022/12/27 08:16:31;;;;;;;10.40;2.15;;;;;;;3.52;85.88;101340.00;5028053;28;20103;-87
2022/12/27 08:18:59;;;;;;;9.93;1.92;;;;;;;3.55;86.76;101352.94;5026720;28;20491;-87
2022/12/27 08:21:34;;;;;;;9.82;2.45;;;;;;;3.70;86.00;101349.22;5049165;28;20071;-88
2022/12/27 08:24:02;;;;;;;10.90;2.58;;;;;;;3.60;87.53;101348.50;5044623;28;20036;-87
2022/12/27 08:26:29;;;;;;;13.63;2.70;;;;;;;3.58;88.13;101354.66;5025086;28;20120;-87
2022/12/27 08:28:57;;;;;;;17.30;2.72;;;;;;;3.66;87.05;101361.44;5031068;28;20558;-87
2022/12/27 08:31:28;;;;;;;10.80;2.28;;;;;;;3.53;87.62;101350.38;5051458;28;20072;-85
2022/12/27 08:33:56;;;;;;;8.85;2.42;;;;;;;3.55;87.59;101351.19;5041256;28;20045;-86
2022/12/27 08:36:25;;;;;;;14.30;2.38;;;;;;;3.58;87.96;101359.84;5041272;28;20040;-87
2022/12/27 08:39:12;;;;;;;6.20;1.95;;;;;;;3.63;87.91;101345.00;5030537;28;20091;-87
2022/12/27 08:41:39;;;;;;;6.95;2.40;;;;;;;3.64;87.42;101359.72;5029900;28;20040;-86
2022/12/27 08:44:08;;;;;;;7.43;2.25;;;;;;;3.69;87.25;101342.28;5041475;28;20056;-86
2022/12/27 08:46:35;;;;;;;8.30;1.83;;;;;;;3.67;87.70;101341.47;5060595;28;20044;-85
2022/12/27 08:49:03;;;;;;;13.32;2.50;;;;;;;3.70;87.39;101351.81;5061380;28;20036;-87
2022/12/27 08:51:30;;;;;;;8.95;2.33;;;;;;;3.74;87.01;101350.88;5044228;28;20071;-86
2022/12/27 08:54:08;;;;;;;6.60;2.17;;;;;;;3.74;87.24;101349.13;5063611;28;20221;-86
2022/12/27 08:56:35;;;;;;;8.23;1.90;;;;;;;3.75;87.39;101344.78;5026718;28;20091;-86
2022/12/27 08:59:27;;;;;;;11.75;2.50;;;;;;;3.84;86.96;101365.44;5045010;28;20045;-88
2022/12/27 09:01:54;;;;;;;7.07;1.75;;;;;;;3.83;86.56;101358.50;5051610;28;20064;-88
2022/12/27 09:04:22;;;;;;;6.50;2.13;;;;;;;3.80;87.45;101358.56;5041351;28;20070;-86
2022/12/27 09:06:49;;;;;;;9.77;1.85;;;;;;;3.91;86.50;101358.34;5043364;28;20044;-87
2022/12/27 09:09:17;;;;;;;10.57;2.60;;;;;;;3.93;86.24;101372.22;5032470;28;20118;-86
2022/12/27 09:11:45;;;;;;;11.80;2.20;;;;;;;3.90;86.10;101370.50;5026613;28;20040;-86
2022/12/27 09:14:15;;;;;;;9.90;2.10;;;;;;;3.95;86.02;101365.22;5057413;28;20040;-86
2022/12/27 09:16:44;;;;;;;8.88;1.98;;;;;;;4.00;85.50;101360.75;5040465;28;20062;-86
2022/12/27 09:19:16;;;;;;;7.82;2.40;;;;;;;3.92;86.38;101375.72;5043370;28;20120;-85
2022/12/27 09:21:45;;;;;;;12.82;2.83;;;;;;;3.95;86.14;101360.84;5072389;28;20061;-85
2022/12/27 09:24:13;;;;;;;9.68;2.20;;;;;;;3.97;86.45;101371.28;5043489;28;20083;-88
2022/12/27 09:26:41;;;;;;;10.35;2.42;;;;;;;4.00;86.32;101366.84;5043618;28;20049;-88
2022/12/27 09:29:09;;;;;;;13.73;2.97;;;;;;;4.02;87.05;101372.03;5034256;28;20040;-89
2022/12/27 09:31:36;;;;;;;8.45;2.20;;;;;;;4.04;86.56;101376.31;5035229;28;20037;-89
2022/12/27 09:34:04;;;;;;;9.82;1.75;;;;;;;4.01;86.32;101376.38;5035966;28;20044;-89
2022/12/27 09:36:31;;;;;;;9.68;2.33;;;;;;;4.02;87.34;101367.69;5045412;28;20086;-87
2022/12/27 09:38:59;;;;;;;9.18;2.70;;;;;;;4.10;86.77;101371.84;5045855;28;20094;-88
2022/12/27 09:41:50;;;;;;;9.70;2.33;;;;;;;4.09;86.94;101371.00;5028122;28;20048;-88
2022/12/27 09:44:49;;;;;;;10.43;2.10;;;;;;;4.10;86.55;101372.75;5026938;28;20515;-87
2022/12/27 09:47:27;;;;;;;11.32;2.58;;;;;;;4.21;85.93;101382.94;5045717;28;20104;-86
2022/12/27 09:50:00;;;;;;;13.00;2.70;;;;;;;4.32;85.86;101379.22;5047369;28;20037;-87
2022/12/27 09:52:33;;;;;;;11.40;2.00;;;;;;;4.39;84.72;101392.13;5038195;28;20434;-87
2022/12/27 09:55:05;;;;;;;13.57;2.83;;;;;;;4.50;84.32;101405.78;5033202;28;20498;-86
2022/12/27 09:57:37;;;;;;;10.52;2.30;;;;;;;4.51;84.51;101399.69;5032990;28;20084;-87
2022/12/27 10:00:13;;;;;;;7.32;2.00;;;;;;;4.53;84.53;101375.28;5053611;28;20048;-87
2022/12/27 10:02:44;;;;;;;8.48;2.30;;;;;;;4.61;84.09;101372.53;5040853;28;20083;-87
2022/12/27 10:05:32;;;;;;;6.82;2.10;;;;;;;4.67;84.28;101384.56;5028883;28;20492;-87
2022/12/27 10:08:06;;;;;;;8.10;2.17;;;;;;;4.72;84.11;101386.16;5014889;28;20070;-88
2022/12/27 10:10:39;;;;;;;9.95;2.40;;;;;;;4.81;84.26;101390.31;5046754;28;20403;-88
2022/12/27 10:13:33;;;;;;;9.75;2.35;;;;;;;4.80;83.85;101378.16;5031342;28;20053;-88
2022/12/27 10:16:06;;;;;;;5.65;2.25;;;;;;;4.77;83.85;101380.84;5036433;28;20098;-88
2022/12/27 10:18:51;;;;;;;9.80;2.38;;;;;;;4.79;84.26;101406.00;5035357;28;20338;-87
2022/12/27 10:21:22;;;;;;;8.02;2.78;;;;;;;4.76;84.22;101395.63;5047555;28;20041;-87
2022/12/27 10:23:59;;;;;;;8.60;2.10;;;;;;;4.78;84.41;101391.25;5048987;28;20045;-87
2022/12/27 10:26:28;;;;;;;6.55;2.33;;;;;;;4.84;83.76;101379.81;5023861;28;20071;-88
2022/12/27 10:29:00;;;;;;;8.15;2.67;;;;;;;4.87;84.21;101369.31;5050549;28;20096;-89
2022/12/27 10:31:34;;;;;;;6.15;2.83;;;;;;;4.87;84.46;101371.94;5034610;28;20248;-88
2022/12/27 10:34:01;;;;;;;11.77;2.58;;;;;;;4.95;84.38;101383.03;5030900;28;20047;-88
2022/12/27 10:36:36;;;;;;;10.73;2.40;;;;;;;5.03;83.22;101394.13;5034875;28;20055;-87
2022/12/27 10:39:22;;;;;;;6.45;2.30;;;;;;;5.02;83.40;101405.47;5031655;28;20043;-88
2022/12/27 10:42:22;;;;;;;9.95;2.80;;;;;;;4.98;83.66;101403.84;5026014;28;20047;-86
2022/12/27 10:44:50;;;;;;;8.18;2.97;;;;;;;5.01;84.11;101415.97;5030342;28;20087;-86
2022/12/27 10:47:17;;;;;;;6.63;2.50;;;;;;;5.04;84.71;101408.94;5050918;28;20052;-88
2022/12/27 10:50:02;;;;;;;15.95;2.75;;;;;;;5.08;84.90;101410.53;5048461;28;20052;-87
2022/12/27 10:52:31;;;;;;;8.73;2.40;;;;;;;5.08;85.16;101410.53;5065209;28;20055;-89
2022/12/27 10:54:58;;;;;;;7.93;2.63;;;;;;;5.07;85.18;101428.84;5039934;28;20036;-87
2022/12/27 10:57:29;;;;;;;10.57;2.30;;;;;;;5.23;84.45;101426.75;5027239;28;20491;-86
2022/12/27 11:00:16;;;;;;;14.10;2.70;;;;;;;5.14;84.19;101421.75;5038549;28;20033;-87
2022/12/27 11:02:53;;;;;;;8.98;2.83;;;;;;;5.11;85.00;101429.66;5046649;28;20068;-87
2022/12/27 11:05:26;;;;;;;10.63;2.53;;;;;;;5.04;84.54;101434.13;5046277;28;20051;-87
2022/12/27 11:07:54;;;;;;;8.65;2.35;;;;;;;5.07;83.85;101429.72;5026605;28;20052;-88
2022/12/27 11:10:24;;;;;;;13.13;2.67;;;;;;;5.04;84.53;101431.53;5032908;28;20041;-87
2022/12/27 11:13:02;;;;;;;11.20;2.60;;;;;;;4.96;84.90;101416.06;5047524;28;20024;-89
2022/12/27 11:15:39;;;;;;;13.65;2.78;;;;;;;4.97;85.09;101428.22;5038155;28;20048;-88
2022/12/27 11:18:11;;;;;;;9.27;2.47;;;;;;;4.99;84.93;101422.94;5030452;28;20079;-88
2022/12/27 11:20:43;;;;;;;9.75;3.13;;;;;;;5.08;84.98;101425.34;5044603;28;20059;-87
2022/12/27 11:23:15;;;;;;;8.18;2.47;;;;;;;5.02;85.04;101439.41;5029700;28;20139;-86
2022/12/27 11:25:56;;;;;;;7.90;2.50;;;;;;;5.11;84.70;101435.72;5027514;28;20045;-88
2022/12/27 11:28:37;;;;;;;9.70;2.90;;;;;;;5.08;84.86;101438.41;5053046;28;20047;-87
2022/12/27 11:31:30;;;;;;;9.27;3.00;;;;;;;5.03;85.48;101461.13;5066305;28;20029;-88
2022/12/27 11:34:00;;;;;;;8.65;2.42;;;;;;;5.05;84.76;101446.31;5059160;28;20049;-88
2022/12/27 11:36:31;;;;;;;11.38;3.05;;;;;;;5.07;85.05;101453.19;5054945;28;20048;-89
2022/12/27 11:39:02;;;;;;;9.00;2.88;;;;;;;5.19;83.36;101443.38;5029950;28;20056;-88
2022/12/27 11:41:48;;;;;;;12.82;3.17;;;;;;;5.10;83.82;101448.81;5026195;28;20040;-87
2022/12/27 11:44:32;;;;;;;7.65;2.88;;;;;;;5.13;85.17;101454.81;5032180;28;20514;-88
2022/12/27 11:47:10;;;;;;;9.90;3.15;;;;;;;5.13;84.84;101451.34;5054064;28;20422;-87
2022/12/27 11:50:26;;;;;;;10.20;2.60;;;;;;;5.12;85.04;101444.41;5047592;28;20056;-88
2022/12/27 11:53:39;;;;;;;10.35;2.70;;;;;;;5.16;84.73;101441.69;5008501;28;20131;-88
2022/12/27 11:56:12;;;;;;;13.38;3.17;;;;;;;5.25;83.46;101440.63;5043938;28;20055;-87
2022/12/27 11:59:07;;;;;;;6.55;2.17;;;;;;;5.26;83.90;101442.31;5061304;28;20060;-89
2022/12/27 12:01:57;;;;;;;14.35;2.35;;;;;;;5.25;84.32;101451.91;5059245;28;20041;-87
2022/12/27 12:04:37;;;;;;;9.60;2.88;;;;;;;5.19;84.41;101443.38;5045252;28;20103;-86
2022/12/27 12:07:10;;;;;;;10.05;2.72;;;;;;;5.16;84.39;101439.09;5048291;28;20556;-87
2022/12/27 12:10:09;;;;;;;12.35;3.38;;;;;;;5.10;84.66;101444.47;5038825;28;20280;-88
2022/12/27 12:13:12;;;;;;;9.95;2.53;;;;;;;5.24;84.24;101438.91;5082668;28;20565;-86
2022/12/27 12:16:09;;;;;;;12.80;2.80;;;;;;;5.19;84.33;101459.03;5039692;28;20090;-86
2022/12/27 12:18:47;;;;;;;;;;;;;;;5.20;84.16;101463.38;5047133;28;20068;-87
2022/12/27 12:21:30;;;;;;;11.43;2.58;;;;;;;5.24;83.77;101462.41;5039175;28;20023;-89
2022/12/27 12:24:33;;;;;;;11.00;2.78;;;;;;;5.17;83.62;101463.44;5038953;28;20049;-88
2022/12/27 12:27:38;;;;;;;6.63;2.50;;;;;;;5.15;83.45;101470.44;5029896;28;20106;-86
2022/12/27 12:30:21;;;;;;;;;;;;;;;5.21;83.80;101476.38;5052784;28;20028;-89
2022/12/27 12:33:18;;;;;;;13.18;2.40;;;;;;;5.21;83.40;101471.16;5041648;28;19927;-89
2022/12/27 12:36:11;;;;;;;13.32;2.65;;;;;;;5.27;83.65;101472.78;5044752;28;20060;-87
2022/12/27 12:38:51;;;;;;;7.88;2.47;;;;;;;5.35;83.59;101483.88;5052716;28;20431;-87
2022/12/27 12:41:41;;;;;;;11.73;2.80;;;;;;;5.53;82.68;101482.59;5022583;28;20041;-87
2022/12/27 12:44:14;;;;;;;10.25;2.45;;;;;;;5.71;82.24;101470.81;5048731;28;20090;-88
2022/12/27 12:47:06;;;;;;;7.68;3.15;;;;;;;6.12;80.45;101468.91;5051174;28;20061;-89
2022/12/27 12:49:55;;;;;;;11.23;3.80;;;;;;;6.20;80.07;101477.41;5044717;28;20032;-89
2022/12/27 12:53:00;;;;;;;7.50;2.80;;;;;;;6.50;78.69;101476.56;5058310;28;20553;-88
2022/12/27 12:55:53;;;;;;;10.27;3.70;;;;;;;6.71;78.62;101485.56;5046433;28;20510;-88
2022/12/27 12:58:48;;;;;;;7.65;2.55;;;;;;;6.89;77.80;101480.69;5038538;28;20538;-88
2022/12/27 13:01:25;;;;;;;17.40;3.03;;;;;;;7.01;76.74;101494.25;5057442;28;20072;-87
2022/12/27 13:04:10;;;;;;;11.10;2.75;;;;;;;6.95;75.68;101494.44;5040406;28;20059;-87
2022/12/27 13:07:01;;;;;;;9.07;2.67;;;;;;;6.98;74.99;101494.38;5054020;28;20067;-87
2022/12/27 13:09:35;;;;;;;8.45;3.03;;;;;;;7.05;76.08;101489.78;5056641;28;20108;-88
2022/12/27 13:12:10;;;;;;;7.28;2.25;;;;;;;6.87;74.46;101488.59;5055348;28;20452;-87
2022/12/27 13:15:16;;;;;;;12.13;3.28;;;;;;;6.81;74.27;101481.78;5056989;28;20049;-88
2022/12/27 13:18:01;;;;;;;10.35;3.00;;;;;;;6.79;75.68;101499.28;5051391;28;20095;-87
2022/12/27 13:20:47;;;;;;;12.07;2.78;;;;;;;6.58;75.33;101503.38;5047092;28;20094;-88
2022/12/27 13:23:40;;;;;;;8.90;2.47;;;;;;;6.37;75.54;101497.88;5045949;28;20115;-89
2022/12/27 13:26:53;;;;;;;14.45;3.22;;;;;;;6.16;77.00;101494.94;5025915;28;20057;-87
2022/12/27 13:29:24;;;;;;;14.40;3.05;;;;;;;6.09;76.19;101520.41;4986496;28;20050;-88
2022/12/27 13:32:10;;;;;;;9.13;2.03;;;;;;;6.09;75.45;101498.63;5004599;28;20042;-87
2022/12/27 13:34:43;;;;;;;;;;;;;;;5.98;75.97;101491.06;5053095;28;20060;-86
2022/12/27 13:37:19;;;;;;;8.68;2.17;;;;;;;5.94;75.54;101502.47;5043633;28;19908;-87
2022/12/27 13:40:14;;;;;;;18.40;2.45;;;;;;;5.86;75.70;101503.56;5056710;28;20056;-85
2022/12/27 13:43:20;;;;;;;11.48;2.58;;;;;;;5.92;76.44;101506.91;5055579;28;20048;-86
2022/12/27 13:46:10;;;;;;;11.57;2.30;;;;;;;5.95;75.47;101505.97;5046939;28;20065;-89